createdAt,value
2022-10-08T00:01:13.882Z,12.67
2022-10-08T00:03:53.005Z,14.87
2022-10-08T00:06:30.327Z,10.90
2022-10-08T00:09:00.483Z,13.00
2022-10-08T00:11:32.338Z,14.63
2022-10-08T00:13:59.336Z,12.73
2022-10-08T00:16:36.101Z,13.43
2022-10-08T00:19:06.583Z,14.77
2022-10-08T00:21:36.173Z,15.60
2022-10-08T00:24:06.654Z,13.70
2022-10-08T00:26:41.222Z,12.00
2022-10-08T00:29:13.613Z,14.87
2022-10-08T00:31:42.696Z,15.60
2022-10-08T00:34:12.221Z,16.90
2022-10-08T00:36:42.130Z,15.60
2022-10-08T00:39:13.700Z,16.93
2022-10-08T00:41:42.676Z,15.87
2022-10-08T00:44:43.653Z,14.80
2022-10-08T00:47:19.757Z,17.33
2022-10-08T00:49:49.988Z,15.77
2022-10-08T00:52:18.251Z,20.03
2022-10-08T00:54:45.921Z,17.37
2022-10-08T00:57:13.085Z,14.13
2022-10-08T00:59:39.699Z,13.13
2022-10-08T01:02:08.881Z,14.73
2022-10-08T01:04:38.036Z,12.83
2022-10-08T01:07:29.493Z,14.83
2022-10-08T01:09:59.666Z,14.43
2022-10-08T01:12:50.747Z,11.70
2022-10-08T01:15:24.351Z,14.83
2022-10-08T01:18:30.574Z,17.33
2022-10-08T01:21:14.420Z,15.53
2022-10-08T01:24:04.487Z,11.73
2022-10-08T01:27:02.237Z,12.27
2022-10-08T01:29:32.333Z,14.53
2022-10-08T01:32:11.144Z,12.90
2022-10-08T01:34:44.891Z,14.13
2022-10-08T01:37:21.068Z,14.30
2022-10-08T01:39:53.206Z,13.03
2022-10-08T01:42:23.344Z,14.87
2022-10-08T01:44:55.134Z,15.73
2022-10-08T01:47:28.194Z,15.63
2022-10-08T01:50:38.506Z,13.80
2022-10-08T01:53:11.581Z,17.50
2022-10-08T01:55:46.081Z,21.37
2022-10-08T01:58:18.591Z,19.10
2022-10-08T02:00:47.672Z,16.97
2022-10-08T02:03:15.711Z,18.77
2022-10-08T02:05:50.654Z,18.43
2022-10-08T02:08:18.486Z,16.23
2022-10-08T02:10:45.133Z,14.97
2022-10-08T02:13:13.035Z,13.47
2022-10-08T02:15:59.725Z,11.43
2022-10-08T02:18:43.236Z,15.07
2022-10-08T02:21:20.577Z,11.03
2022-10-08T02:23:58.223Z,10.90
2022-10-08T02:26:40.773Z,10.83
2022-10-08T02:29:38.319Z,13.03
2022-10-08T02:32:19.217Z,14.23
2022-10-08T02:35:04.541Z,13.13
2022-10-08T02:37:43.935Z,14.37
2022-10-08T02:40:14.257Z,12.60
2022-10-08T02:43:00.558Z,13.07
2022-10-08T02:45:33.327Z,14.23
2022-10-08T02:48:06.550Z,13.13
2022-10-08T02:50:38.813Z,17.60
2022-10-08T02:53:05.670Z,16.37
2022-10-08T02:55:54.691Z,15.57
2022-10-08T02:58:22.222Z,10.60
2022-10-08T03:00:59.159Z,11.53
2022-10-08T03:03:37.869Z,8.73
2022-10-08T03:06:09.021Z,8.73
2022-10-08T03:08:41.390Z,9.30
2022-10-08T03:11:08.639Z,9.07
2022-10-08T03:13:42.120Z,11.10
2022-10-08T03:16:13.626Z,11.53
2022-10-08T03:18:45.285Z,16.63
2022-10-08T03:21:14.256Z,8.97
2022-10-08T03:23:40.894Z,9.90
2022-10-08T03:26:07.831Z,11.87
2022-10-08T03:28:34.560Z,11.10
2022-10-08T03:31:06.470Z,9.57
2022-10-08T03:33:33.965Z,10.83
2022-10-08T03:36:00.597Z,13.53
2022-10-08T03:38:27.263Z,10.53
2022-10-08T03:40:59.222Z,13.50
2022-10-08T03:43:32.166Z,12.73
2022-10-08T03:45:59.093Z,12.63
2022-10-08T03:48:25.972Z,15.13
2022-10-08T03:50:59.800Z,11.83
2022-10-08T03:53:29.017Z,16.13
2022-10-08T03:55:55.653Z,17.63
2022-10-08T03:58:22.551Z,18.70
2022-10-08T04:00:59.747Z,17.20
2022-10-08T04:03:27.093Z,18.10
2022-10-08T04:05:54.018Z,18.60
2022-10-08T04:08:21.398Z,16.80
2022-10-08T04:10:48.275Z,16.87
2022-10-08T04:13:16.875Z,17.90
2022-10-08T04:15:45.147Z,21.20
2022-10-08T04:18:13.787Z,16.80
2022-10-08T04:20:44.302Z,16.83
2022-10-08T04:23:11.250Z,21.13
2022-10-08T04:25:38.239Z,21.23
2022-10-08T04:28:06.316Z,24.30
2022-10-08T04:30:33.431Z,26.63
2022-10-08T04:33:00.059Z,28.33
2022-10-08T04:35:26.748Z,27.47
2022-10-08T04:37:53.634Z,30.57
2022-10-08T04:40:20.257Z,31.33
2022-10-08T04:42:51.988Z,32.53
2022-10-08T04:45:19.019Z,30.83
2022-10-08T04:47:45.655Z,34.60
2022-10-08T04:50:12.276Z,31.83
2022-10-08T04:52:39.141Z,31.60
2022-10-08T04:55:06.335Z,32.03
2022-10-08T04:57:32.977Z,30.70
2022-10-08T05:00:18.238Z,31.90
2022-10-08T05:02:45.815Z,33.57
2022-10-08T05:05:12.820Z,31.07
2022-10-08T05:07:39.716Z,35.23
2022-10-08T05:10:06.943Z,36.97
2022-10-08T05:12:33.578Z,33.23
2022-10-08T05:15:00.248Z,30.43
2022-10-08T05:17:26.840Z,31.20
2022-10-08T05:19:53.497Z,29.47
2022-10-08T05:22:20.386Z,30.07
2022-10-08T05:24:47.286Z,29.53
2022-10-08T05:27:13.983Z,29.57
2022-10-08T05:29:40.620Z,32.57
2022-10-08T05:32:26.460Z,33.87
2022-10-08T05:34:53.402Z,33.93
2022-10-08T05:37:20.224Z,29.07
2022-10-08T05:39:48.371Z,29.03
2022-10-08T05:42:14.997Z,27.53
2022-10-08T05:44:45.421Z,31.90
2022-10-08T05:47:12.827Z,28.60
2022-10-08T05:49:39.512Z,30.53
2022-10-08T05:52:06.121Z,29.73
2022-10-08T05:54:32.760Z,27.93
2022-10-08T05:56:59.638Z,29.13
2022-10-08T05:59:26.271Z,31.90
2022-10-08T06:01:56.036Z,28.17
2022-10-08T06:04:23.232Z,28.53
2022-10-08T06:06:50.002Z,34.37
2022-10-08T06:09:19.372Z,27.83
2022-10-08T06:11:47.001Z,27.33
2022-10-08T06:14:20.357Z,24.50
2022-10-08T06:16:47.168Z,27.73
2022-10-08T06:19:15.859Z,31.30
2022-10-08T06:21:44.959Z,26.20
2022-10-08T06:24:12.814Z,29.30
2022-10-08T06:26:41.839Z,23.50
2022-10-08T06:29:13.172Z,26.47
2022-10-08T06:31:39.833Z,24.33
2022-10-08T06:34:06.674Z,21.13
2022-10-08T06:36:34.999Z,22.90
2022-10-08T06:39:05.844Z,24.10
2022-10-08T06:41:35.307Z,22.03
2022-10-08T06:44:04.443Z,27.60
2022-10-08T06:46:32.866Z,27.20
2022-10-08T06:49:00.753Z,24.23
2022-10-08T06:51:28.571Z,21.20
2022-10-08T06:54:05.796Z,23.90
2022-10-08T06:56:35.890Z,23.40
2022-10-08T06:59:07.179Z,50.53
2022-10-08T07:01:35.513Z,23.60
2022-10-08T07:04:05.488Z,25.63
2022-10-08T07:06:32.732Z,23.67
2022-10-08T07:09:00.834Z,19.10
2022-10-08T07:11:38.127Z,19.13
2022-10-08T07:14:05.101Z,18.37
2022-10-08T07:16:31.981Z,17.03
2022-10-08T07:19:00.311Z,16.60
2022-10-08T07:21:28.812Z,16.17
2022-10-08T07:23:58.268Z,15.63
2022-10-08T07:26:28.015Z,14.97
2022-10-08T07:29:14.790Z,17.77
2022-10-08T07:31:41.755Z,19.83
2022-10-08T07:34:11.905Z,20.83
2022-10-08T07:36:39.579Z,18.93
2022-10-08T07:39:09.283Z,18.20
2022-10-08T07:41:35.881Z,17.33
2022-10-08T07:44:03.834Z,18.23
2022-10-08T07:46:33.058Z,18.93
2022-10-08T07:49:01.427Z,19.83
2022-10-08T07:51:31.449Z,19.47
2022-10-08T07:54:02.562Z,17.83
2022-10-08T07:56:34.087Z,18.70
2022-10-08T07:59:02.546Z,18.83
2022-10-08T08:01:30.732Z,19.53
2022-10-08T08:04:05.043Z,20.70
2022-10-08T08:06:34.463Z,17.27
2022-10-08T08:09:02.168Z,16.00
2022-10-08T08:11:29.561Z,16.83
2022-10-08T08:13:56.278Z,18.70
2022-10-08T08:16:26.106Z,14.47
2022-10-08T08:18:55.888Z,16.93
2022-10-08T08:21:32.576Z,15.13
2022-10-08T08:24:05.089Z,16.70
2022-10-08T08:26:34.035Z,15.53
2022-10-08T08:29:05.088Z,17.00
2022-10-08T08:31:34.692Z,18.53
2022-10-08T08:34:08.628Z,20.30
2022-10-08T08:36:38.213Z,16.10
2022-10-08T08:39:07.328Z,18.90
2022-10-08T08:41:39.835Z,15.73
2022-10-08T08:44:30.695Z,20.20
2022-10-08T08:47:04.968Z,17.60
2022-10-08T08:49:36.331Z,15.00
2022-10-08T08:52:06.532Z,18.17
2022-10-08T08:54:33.434Z,16.50
2022-10-08T08:57:42.106Z,14.33
2022-10-08T09:00:18.475Z,14.87
2022-10-08T09:03:06.470Z,14.60
2022-10-08T09:05:41.477Z,13.53
2022-10-08T09:08:17.178Z,12.80
2022-10-08T09:10:56.601Z,13.77
2022-10-08T09:13:57.631Z,13.50
2022-10-08T09:16:27.741Z,12.53
2022-10-08T09:18:55.119Z,11.43
2022-10-08T09:21:24.514Z,10.90
2022-10-08T09:23:51.323Z,11.87
2022-10-08T09:26:20.342Z,14.40
2022-10-08T09:28:51.330Z,14.27
2022-10-08T09:31:39.162Z,12.03
2022-10-08T09:34:17.407Z,9.33
2022-10-08T09:36:44.029Z,9.90
2022-10-08T09:39:23.237Z,9.53
2022-10-08T09:42:10.500Z,9.53
2022-10-08T09:44:44.935Z,11.00
2022-10-08T09:47:32.799Z,10.80
2022-10-08T09:50:20.422Z,9.57
2022-10-08T09:52:50.356Z,9.50
2022-10-08T09:55:29.694Z,8.97
2022-10-08T09:58:03.495Z,7.80
2022-10-08T10:00:31.842Z,7.23
2022-10-08T10:03:00.281Z,10.83
2022-10-08T10:05:30.909Z,5.87
2022-10-08T10:07:58.518Z,6.80
2022-10-08T10:10:31.158Z,7.77
2022-10-08T10:13:07.104Z,8.47
2022-10-08T10:15:55.055Z,5.57
2022-10-08T10:18:28.648Z,5.77
2022-10-08T10:21:26.839Z,4.63
2022-10-08T10:24:21.072Z,4.83
2022-10-08T10:26:51.213Z,5.63
2022-10-08T10:29:23.061Z,4.87
2022-10-08T10:31:57.928Z,5.93
2022-10-08T10:34:28.187Z,5.03
2022-10-08T10:37:00.910Z,6.90
2022-10-08T10:39:44.639Z,4.90
2022-10-08T10:42:17.534Z,6.57
2022-10-08T10:45:23.085Z,5.00
2022-10-08T10:47:51.087Z,6.00
2022-10-08T10:50:49.168Z,7.40
2022-10-08T10:53:45.606Z,3.50
2022-10-08T10:56:20.881Z,5.20
2022-10-08T10:58:56.482Z,10.20
2022-10-08T11:01:55.113Z,7.33
2022-10-08T11:04:27.783Z,5.77
2022-10-08T11:07:03.615Z,7.47
2022-10-08T11:09:47.883Z,6.17
2022-10-08T11:12:36.377Z,4.73
2022-10-08T11:15:18.351Z,7.37
2022-10-08T11:18:14.311Z,8.13
2022-10-08T11:21:03.878Z,6.13
2022-10-08T11:23:40.107Z,8.63
2022-10-08T11:26:27.795Z,9.23
2022-10-08T11:29:06.740Z,5.83
2022-10-08T11:31:46.319Z,7.23
2022-10-08T11:34:36.545Z,5.70
2022-10-08T11:37:15.646Z,5.23
2022-10-08T11:39:48.312Z,3.53
2022-10-08T11:42:21.603Z,7.37
2022-10-08T11:44:48.525Z,3.10
2022-10-08T11:47:54.394Z,5.07
2022-10-08T11:50:26.212Z,3.83
2022-10-08T11:52:57.354Z,5.27
2022-10-08T11:55:29.316Z,3.57
2022-10-08T11:58:08.535Z,2.10
2022-10-08T12:00:43.221Z,4.83
2022-10-08T12:03:31.368Z,3.93
2022-10-08T12:06:01.512Z,4.23
2022-10-08T12:08:53.564Z,4.07
2022-10-08T12:11:32.512Z,5.80
2022-10-08T12:14:11.652Z,4.70
2022-10-08T12:16:47.549Z,4.47
2022-10-08T12:19:36.436Z,3.67
2022-10-08T12:22:10.739Z,3.97
2022-10-08T12:24:37.579Z,2.57
2022-10-08T12:27:27.742Z,5.13
2022-10-08T12:30:13.900Z,6.20
2022-10-08T12:32:44.002Z,3.43
2022-10-08T12:35:33.058Z,3.13
2022-10-08T12:38:13.758Z,4.20
2022-10-08T12:40:46.784Z,2.80
2022-10-08T12:43:35.705Z,3.77
2022-10-08T12:46:21.437Z,1.93
2022-10-08T12:48:59.542Z,2.63
2022-10-08T12:51:36.903Z,2.63
2022-10-08T12:54:04.523Z,3.17
2022-10-08T12:56:34.613Z,2.43
2022-10-08T12:59:04.030Z,8.87
2022-10-08T13:01:33.136Z,5.17
2022-10-08T13:04:24.967Z,4.47
2022-10-08T13:06:54.087Z,4.47
2022-10-08T13:09:26.939Z,6.70
2022-10-08T13:12:00.690Z,1.70
2022-10-08T13:14:39.974Z,4.57
2022-10-08T13:17:26.749Z,2.03
2022-10-08T13:20:04.441Z,5.00
2022-10-08T13:22:31.463Z,3.47
2022-10-08T13:24:58.335Z,3.97
2022-10-08T13:27:33.236Z,2.80
2022-10-08T13:30:20.434Z,5.00
2022-10-08T13:32:47.349Z,3.97
2022-10-08T13:35:23.422Z,3.27
2022-10-08T13:37:56.095Z,3.30
2022-10-08T13:40:25.067Z,4.73
2022-10-08T13:42:55.332Z,3.73
2022-10-08T13:45:28.799Z,4.93
2022-10-08T13:47:56.814Z,3.07
2022-10-08T13:50:24.540Z,3.77
2022-10-08T13:52:56.085Z,3.40
2022-10-08T13:55:31.511Z,3.73
2022-10-08T13:58:02.093Z,6.53
2022-10-08T14:00:35.637Z,5.13
2022-10-08T14:03:03.935Z,4.80
2022-10-08T14:05:33.530Z,5.60
2022-10-08T14:08:04.941Z,3.37
2022-10-08T14:10:32.186Z,3.67
2022-10-08T14:12:59.324Z,4.10
2022-10-08T14:15:26.271Z,6.00
2022-10-08T14:17:53.440Z,4.67
2022-10-08T14:20:20.956Z,4.07
2022-10-08T14:22:47.995Z,4.03
2022-10-08T14:25:21.347Z,4.67
2022-10-08T14:27:48.869Z,4.80
2022-10-08T14:30:17.066Z,4.70
2022-10-08T14:32:44.581Z,4.80
2022-10-08T14:35:14.688Z,4.77
2022-10-08T14:37:41.483Z,6.37
2022-10-08T14:40:39.695Z,2.83
2022-10-08T14:43:06.347Z,4.10
2022-10-08T14:45:34.502Z,5.93
2022-10-08T14:48:01.398Z,3.27
2022-10-08T14:50:28.201Z,4.00
2022-10-08T14:52:54.971Z,2.97
2022-10-08T14:55:31.054Z,2.70
2022-10-08T14:57:57.657Z,3.10
2022-10-08T15:00:24.639Z,5.70
2022-10-08T15:02:51.567Z,3.07
2022-10-08T15:05:18.318Z,5.57
2022-10-08T15:07:45.281Z,6.40
2022-10-08T15:10:14.741Z,4.00
2022-10-08T15:12:41.501Z,3.43
2022-10-08T15:15:08.429Z,3.90
2022-10-08T15:17:35.063Z,3.07
2022-10-08T15:20:04.367Z,2.37
2022-10-08T15:22:32.220Z,5.97
2022-10-08T15:24:58.889Z,2.87
2022-10-08T15:27:25.531Z,6.10
2022-10-08T15:29:52.431Z,7.53
2022-10-08T15:32:19.105Z,9.60
2022-10-08T15:34:45.736Z,3.50
2022-10-08T15:37:12.417Z,3.13
2022-10-08T15:39:39.344Z,3.80
2022-10-08T15:42:06.139Z,4.03
2022-10-08T15:44:32.985Z,3.13
2022-10-08T15:47:06.460Z,5.47
2022-10-08T15:49:38.950Z,2.93
2022-10-08T15:52:10.154Z,5.47
2022-10-08T15:54:40.561Z,2.90
2022-10-08T15:57:09.305Z,4.87
2022-10-08T15:59:37.574Z,4.27
2022-10-08T16:02:04.605Z,5.30
2022-10-08T16:04:31.317Z,5.50
2022-10-08T16:06:58.595Z,3.97
2022-10-08T16:09:25.538Z,5.10
2022-10-08T16:11:52.501Z,3.43
2022-10-08T16:14:25.933Z,4.10
2022-10-08T16:16:53.329Z,2.30
2022-10-08T16:19:25.058Z,4.83
2022-10-08T16:21:58.316Z,4.87
2022-10-08T16:24:25.659Z,5.83
2022-10-08T16:26:53.361Z,5.30
2022-10-08T16:29:20.028Z,2.50
2022-10-08T16:31:47.191Z,3.67
2022-10-08T16:34:17.186Z,7.27
2022-10-08T16:36:45.844Z,4.83
2022-10-08T16:39:13.960Z,5.60
2022-10-08T16:41:40.982Z,3.83
2022-10-08T16:44:16.687Z,7.17
2022-10-08T16:46:50.784Z,6.03
2022-10-08T16:49:30.402Z,3.80
2022-10-08T16:52:02.542Z,5.33
2022-10-08T16:54:33.099Z,5.17
2022-10-08T16:57:00.299Z,3.33
2022-10-08T16:59:29.308Z,4.53
2022-10-08T17:01:58.261Z,3.07
2022-10-08T17:04:27.631Z,5.60
2022-10-08T17:06:56.892Z,3.13
2022-10-08T17:09:23.950Z,5.03
2022-10-08T17:11:50.696Z,3.50
2022-10-08T17:14:17.447Z,3.40
2022-10-08T17:16:45.861Z,6.53
2022-10-08T17:19:12.893Z,4.97
2022-10-08T17:21:40.719Z,4.43
2022-10-08T17:24:07.883Z,4.50
2022-10-08T17:26:34.592Z,5.73
2022-10-08T17:29:06.166Z,4.40
2022-10-08T17:31:34.131Z,8.60
2022-10-08T17:34:02.200Z,5.67
2022-10-08T17:36:34.715Z,10.87
2022-10-08T17:39:03.996Z,9.23
2022-10-08T17:41:32.750Z,7.50
2022-10-08T17:44:02.419Z,13.83
2022-10-08T17:46:35.332Z,14.43
2022-10-08T17:49:04.648Z,17.83
2022-10-08T17:51:31.817Z,25.30
2022-10-08T17:54:03.199Z,14.03
2022-10-08T17:56:31.857Z,12.73
2022-10-08T17:58:59.953Z,13.53
2022-10-08T18:01:32.303Z,16.33
2022-10-08T18:04:02.319Z,17.57
2022-10-08T18:06:29.969Z,18.07
2022-10-08T18:08:58.475Z,21.70
2022-10-08T18:11:26.773Z,20.90
2022-10-08T18:13:54.030Z,13.47
2022-10-08T18:16:21.585Z,16.77
2022-10-08T18:18:49.606Z,11.07
2022-10-08T18:21:18.578Z,13.40
2022-10-08T18:23:48.982Z,9.43
2022-10-08T18:26:25.133Z,11.60
2022-10-08T18:28:57.237Z,11.17
2022-10-08T18:31:26.862Z,9.03
2022-10-08T18:34:01.112Z,12.13
2022-10-08T18:36:30.796Z,8.80
2022-10-08T18:39:03.586Z,9.43
2022-10-08T18:41:32.817Z,9.83
2022-10-08T18:44:00.891Z,8.53
2022-10-08T18:46:28.603Z,8.23
2022-10-08T18:48:56.087Z,5.70
2022-10-08T18:51:25.970Z,7.73
2022-10-08T18:53:56.229Z,6.53
2022-10-08T18:56:23.116Z,9.80
2022-10-08T18:58:53.042Z,7.93
2022-10-08T19:01:44.031Z,8.03
2022-10-08T19:04:19.200Z,9.47
2022-10-08T19:06:48.019Z,5.47
2022-10-08T19:09:15.155Z,7.37
2022-10-08T19:11:51.255Z,9.07
2022-10-08T19:14:20.706Z,8.50
2022-10-08T19:16:48.771Z,9.80
2022-10-08T19:19:19.219Z,7.50
2022-10-08T19:21:46.860Z,4.30
2022-10-08T19:24:17.944Z,6.53
2022-10-08T19:26:47.491Z,7.17
2022-10-08T19:29:23.091Z,7.83
2022-10-08T19:31:50.518Z,10.93
2022-10-08T19:34:20.037Z,6.83
2022-10-08T19:36:47.439Z,8.83
2022-10-08T19:39:17.888Z,8.87
2022-10-08T19:41:45.260Z,8.47
2022-10-08T19:44:12.268Z,9.37
2022-10-08T19:46:39.166Z,11.13
2022-10-08T19:49:08.195Z,7.87
2022-10-08T19:51:37.093Z,8.03
2022-10-08T19:54:06.417Z,9.43
2022-10-08T19:56:33.238Z,8.20
2022-10-08T19:59:00.037Z,7.87
2022-10-08T20:01:29.928Z,10.40
2022-10-08T20:03:58.733Z,9.23
2022-10-08T20:06:27.852Z,7.10
2022-10-08T20:08:57.097Z,7.67
2022-10-08T20:11:27.642Z,7.87
2022-10-08T20:13:54.602Z,7.13
2022-10-08T20:16:27.175Z,9.80
2022-10-08T20:19:05.792Z,7.47
2022-10-08T20:21:38.204Z,10.90
2022-10-08T20:24:06.424Z,6.93
2022-10-08T20:26:36.190Z,11.73
2022-10-08T20:29:09.996Z,18.80
2022-10-08T20:31:44.938Z,12.43
2022-10-08T20:34:23.698Z,9.23
2022-10-08T20:36:51.522Z,10.30
2022-10-08T20:39:20.425Z,10.30
2022-10-08T20:41:47.639Z,7.33
2022-10-08T20:44:14.622Z,9.83
2022-10-08T20:46:41.370Z,10.20
2022-10-08T20:49:08.376Z,9.83
2022-10-08T20:51:37.675Z,10.77
2022-10-08T20:54:07.881Z,8.93
2022-10-08T20:56:39.885Z,10.97
2022-10-08T20:59:10.508Z,10.33
2022-10-08T21:01:39.184Z,7.57
2022-10-08T21:04:07.318Z,8.80
2022-10-08T21:06:43.340Z,6.93
2022-10-08T21:09:10.717Z,6.63
2022-10-08T21:11:38.190Z,7.67
2022-10-08T21:14:07.484Z,8.23
2022-10-08T21:16:37.310Z,7.40
2022-10-08T21:19:06.712Z,7.53
2022-10-08T21:21:34.348Z,4.57
2022-10-08T21:24:01.418Z,4.67
2022-10-08T21:26:32.304Z,7.07
2022-10-08T21:29:00.794Z,6.60
2022-10-08T21:31:29.179Z,7.70
2022-10-08T21:33:56.629Z,6.73
2022-10-08T21:36:26.627Z,5.57
2022-10-08T21:38:53.785Z,7.03
2022-10-08T21:41:24.692Z,5.57
2022-10-08T21:43:59.336Z,7.27
2022-10-08T21:46:28.884Z,8.53
2022-10-08T21:48:58.305Z,9.50
2022-10-08T21:51:26.949Z,8.00
2022-10-08T21:53:56.015Z,6.43
2022-10-08T21:56:26.885Z,6.50
2022-10-08T21:58:55.955Z,4.40
2022-10-08T22:01:22.862Z,5.30
2022-10-08T22:03:56.704Z,6.37
2022-10-08T22:06:24.428Z,4.63
2022-10-08T22:08:51.749Z,7.17
2022-10-08T22:11:19.520Z,7.50
2022-10-08T22:13:46.490Z,5.53
2022-10-08T22:16:15.269Z,7.03
2022-10-08T22:18:42.223Z,7.33
2022-10-08T22:21:17.986Z,8.60
2022-10-08T22:23:45.351Z,8.47
2022-10-08T22:26:23.910Z,9.00
2022-10-08T22:28:51.370Z,8.33
2022-10-08T22:31:22.191Z,8.87
2022-10-08T22:33:49.424Z,6.50
2022-10-08T22:36:22.595Z,6.27
2022-10-08T22:38:50.142Z,7.83
2022-10-08T22:41:24.752Z,7.33
2022-10-08T22:43:51.922Z,5.37
2022-10-08T22:46:21.747Z,7.77
2022-10-08T22:48:49.183Z,8.27
2022-10-08T22:51:20.490Z,7.43
2022-10-08T22:53:49.059Z,6.30
2022-10-08T22:56:18.617Z,8.33
2022-10-08T22:58:47.763Z,8.33
2022-10-08T23:01:17.850Z,7.57
2022-10-08T23:03:44.626Z,6.87
2022-10-08T23:06:19.134Z,6.37
2022-10-08T23:08:51.172Z,7.17
2022-10-08T23:11:18.216Z,6.07
2022-10-08T23:13:45.579Z,7.17
2022-10-08T23:16:14.697Z,5.10
2022-10-08T23:18:44.162Z,4.77
2022-10-08T23:21:16.353Z,6.70
2022-10-08T23:23:44.602Z,4.40
2022-10-08T23:26:12.120Z,6.87
2022-10-08T23:28:39.561Z,5.27
2022-10-08T23:31:13.675Z,5.50
2022-10-08T23:33:43.943Z,7.03
2022-10-08T23:36:17.654Z,5.77
2022-10-08T23:38:44.826Z,6.77
2022-10-08T23:41:13.399Z,4.70
2022-10-08T23:43:43.297Z,6.97
2022-10-08T23:46:12.360Z,6.63
2022-10-08T23:48:40.003Z,4.50
2022-10-08T23:51:09.048Z,7.73
2022-10-08T23:53:36.549Z,6.50
2022-10-08T23:56:03.943Z,5.30
2022-10-08T23:58:30.992Z,5.90
